Time;durP1;ratioP1;P1;durP2;ratioP2;P2;SDS_P1;SDS_P2;PMS_P1;PMS_P2;Temp;Humidity;BMP_temperature;BMP_pressure;BME280_temperature;BME280_humidity;BME280_pressure;Samples;Min_cycle;Max_cycle;Signal;HPM_P1;HPM_P2
2022/07/01 09:15:52;;;;;;;6.83;5.12;;;;;;;31.31;100.00;99690.27;1852880;76;22606;-76
2022/07/01 09:18:19;;;;;;;6.20;4.80;;;;;;;31.58;100.00;99683.23;1766376;78;20987;-76
2022/07/01 09:20:49;;;;;;;6.22;4.65;;;;;;;32.15;100.00;99690.91;1807057;78;21153;-77
2022/07/01 09:23:18;;;;;;;6.12;4.40;;;;;;;32.61;100.00;99679.56;1801112;78;20945;-77
2022/07/01 09:25:48;;;;;;;6.35;4.17;;;;;;;32.49;100.00;99686.94;1808478;78;20967;-77
2022/07/01 09:28:19;;;;;;;7.58;5.10;;;;;;;32.43;94.84;99692.45;1801988;78;21478;-77
2022/07/01 09:30:48;;;;;;;6.42;4.42;;;;;;;32.05;94.25;99685.00;1805901;78;20929;-76
2022/07/01 09:33:25;;;;;;;8.83;4.65;;;;;;;31.68;96.16;99689.16;1803821;78;21139;-76
2022/07/01 09:35:52;;;;;;;5.35;3.62;;;;;;;31.50;93.88;99682.71;1804152;78;21474;-74
2022/07/01 09:38:24;;;;;;;10.03;5.08;;;;;;;31.51;97.33;99677.17;1796470;78;21004;-77
2022/07/01 09:40:58;;;;;;;21.17;5.00;;;;;;;31.87;98.59;99672.85;1799438;78;20993;-77
2022/07/01 09:43:29;;;;;;;9.67;4.80;;;;;;;32.26;97.40;99684.00;1800605;78;20874;-77
2022/07/01 09:45:59;;;;;;;6.95;4.20;;;;;;;32.27;94.01;99682.10;1794735;78;21817;-78
2022/07/01 09:48:34;;;;;;;7.30;4.45;;;;;;;32.39;91.65;99675.33;1794742;80;21012;-77
2022/07/01 09:51:02;;;;;;;4.30;3.87;;;;;;;32.35;94.07;99681.80;1792979;79;21497;-77
2022/07/01 09:53:31;;;;;;;7.45;4.28;;;;;;;32.60;93.39;99678.61;1799216;78;21083;-76
2022/07/01 09:55:58;;;;;;;4.92;3.77;;;;;;;32.84;89.48;99669.48;1805397;78;21494;-76
2022/07/01 09:58:25;;;;;;;5.92;4.03;;;;;;;33.37;85.59;99656.23;1806270;78;21649;-76
2022/07/01 10:00:53;;;;;;;6.10;4.20;;;;;;;33.18;85.16;99659.72;1798096;78;20905;-77
2022/07/01 10:03:20;;;;;;;6.85;4.28;;;;;;;33.38;87.87;99659.23;1798945;78;21059;-76
2022/07/01 10:06:33;;;;;;;5.55;4.05;;;;;;;33.67;85.15;99661.45;1808197;79;21490;-77
2022/07/01 10:09:08;;;;;;;6.10;3.80;;;;;;;33.71;83.21;99665.72;1719453;81;21044;-76
2022/07/01 10:12:10;;;;;;;6.62;4.20;;;;;;;33.93;78.00;99654.73;1731131;81;21831;-76
2022/07/01 10:14:45;;;;;;;8.10;3.77;;;;;;;33.89;73.15;99661.24;1693516;81;67158;-74
2022/07/01 10:17:37;;;;;;;25.48;5.50;;;;;;;33.38;74.25;99659.23;1702283;83;21671;-75
2022/07/01 10:20:32;;;;;;;8.23;4.15;;;;;;;33.34;76.84;99655.11;1671839;83;21109;-76
2022/07/01 10:23:04;;;;;;;9.10;3.40;;;;;;;33.13;77.24;99649.73;1694575;84;20974;-74
2022/07/01 10:25:45;;;;;;;4.53;3.20;;;;;;;33.21;73.41;99655.91;1681299;83;21260;-78
2022/07/01 10:28:26;;;;;;;3.52;3.15;;;;;;;33.01;73.51;99655.06;1633113;85;21045;-79
2022/07/01 10:30:59;;;;;;;5.58;3.37;;;;;;;33.35;74.11;99658.77;1625291;86;21093;-78
2022/07/01 10:33:58;;;;;;;3.58;3.27;;;;;;;33.14;71.62;99658.44;1637959;86;21063;-76
2022/07/01 10:36:33;;;;;;;3.62;3.15;;;;;;;33.00;69.18;99657.77;1652025;85;21085;-77
2022/07/01 10:39:13;;;;;;;6.03;2.98;;;;;;;33.00;71.60;99648.41;1656266;84;21870;-78
2022/07/01 10:41:56;;;;;;;3.22;2.87;;;;;;;33.10;71.54;99646.38;1667706;84;20984;-75
2022/07/01 10:44:25;;;;;;;3.33;3.05;;;;;;;33.13;71.50;99644.03;1664756;84;21012;-77
2022/07/01 10:47:02;;;;;;;7.72;3.50;;;;;;;33.19;71.09;99642.13;1664332;84;21087;-77
2022/07/01 10:49:52;;;;;;;7.90;3.20;;;;;;;33.24;67.27;99641.48;1663260;84;21026;-74
2022/07/01 10:52:18;;;;;;;4.33;2.92;;;;;;;33.30;67.38;99635.95;1662233;86;21805;-78
2022/07/01 10:54:48;;;;;;;9.55;3.00;;;;;;;33.18;62.02;99632.61;1652822;85;21016;-75
2022/07/01 10:57:22;;;;;;;2.83;2.40;;;;;;;33.46;63.97;99633.38;1665931;84;21071;-75
2022/07/01 11:00:00;;;;;;;4.28;2.58;;;;;;;33.46;62.58;99636.86;1666771;84;21064;-77
2022/07/01 11:02:34;;;;;;;9.68;2.95;;;;;;;33.50;59.63;99631.16;1663445;84;21088;-79
2022/07/01 11:05:31;;;;;;;19.30;3.62;;;;;;;33.54;58.99;99628.13;1663247;84;21191;-80
2022/07/01 11:07:58;;;;;;;6.65;2.70;;;;;;;33.39;59.88;99634.50;1664209;84;21517;-76
2022/07/01 11:10:27;;;;;;;9.05;2.40;;;;;;;33.51;56.19;99631.94;1638798;85;21086;-78
2022/07/01 11:12:59;;;;;;;3.22;2.37;;;;;;;33.36;56.15;99634.66;1668701;84;20959;-71
2022/07/01 11:19:14;;;;;;;5.67;2.62;;;;;;;32.94;53.81;99626.08;1661993;83;21508;-79
2022/07/01 11:21:51;;;;;;;2.87;1.85;;;;;;;32.79;58.36;99636.03;1719290;83;21051;-75
2022/07/01 11:24:19;;;;;;;3.27;2.35;;;;;;;33.11;55.68;99622.31;1737598;80;21570;-78
2022/07/01 11:27:08;;;;;;;5.72;2.45;;;;;;;33.01;52.99;99620.84;1756345;81;20978;-76
2022/07/01 11:29:38;;;;;;;5.37;2.50;;;;;;;33.06;57.75;99617.20;1761208;81;20967;-75
2022/07/01 11:32:07;;;;;;;5.95;2.70;;;;;;;33.07;54.34;99615.93;1760011;81;21234;-73
2022/07/01 11:34:34;;;;;;;4.08;3.17;;;;;;;33.09;58.63;99622.79;1752647;79;21441;-69
2022/07/01 11:39:46;;;;;;;5.25;2.87;;;;;;;32.86;62.57;99624.95;1705209;80;21128;-76
2022/07/01 11:42:13;;;;;;;3.92;2.60;;;;;;;32.94;63.76;99622.60;1750125;80;20995;-78
2022/07/01 11:44:42;;;;;;;3.45;3.00;;;;;;;33.12;65.62;99621.83;1744250;81;22136;-79
2022/07/01 11:47:11;;;;;;;4.83;2.75;;;;;;;33.32;63.50;99618.34;1762349;81;20911;-79
2022/07/01 11:49:46;;;;;;;2.50;2.10;;;;;;;33.42;63.80;99621.32;1761101;81;21008;-78
2022/07/01 11:52:14;;;;;;;9.58;2.70;;;;;;;33.59;56.22;99618.91;1760885;81;21058;-77
2022/07/01 11:54:44;;;;;;;3.00;2.02;;;;;;;33.78;53.25;99623.18;1760849;81;21007;-78
2022/07/01 11:57:17;;;;;;;6.92;2.50;;;;;;;33.72;55.46;99619.40;1732111;81;21089;-78
2022/07/01 11:59:45;;;;;;;6.37;2.92;;;;;;;33.82;56.21;99616.67;1761206;81;21061;-78
2022/07/01 12:02:14;;;;;;;5.70;2.70;;;;;;;33.88;57.97;99619.03;1760813;81;21042;-79
2022/07/01 12:04:45;;;;;;;4.15;2.80;;;;;;;33.91;59.08;99615.86;1730080;81;20991;-76
2022/07/01 12:07:13;;;;;;;9.83;3.02;;;;;;;33.86;56.29;99609.38;1761210;81;21010;-80
2022/07/01 12:09:41;;;;;;;4.55;2.77;;;;;;;33.77;55.05;99615.89;1761329;81;21841;-81
2022/07/01 12:12:17;;;;;;;3.72;2.70;;;;;;;33.65;58.32;99607.68;1761694;81;21530;-78
2022/07/01 12:14:53;;;;;;;9.55;2.52;;;;;;;33.73;59.73;99605.27;1760340;81;21463;-80
2022/07/01 12:17:19;;;;;;;6.60;2.62;;;;;;;33.97;57.83;99607.41;1756820;80;21018;-79
2022/07/01 12:19:47;;;;;;;3.05;2.45;;;;;;;33.84;52.18;99597.00;1757867;80;20942;-80
2022/07/01 12:22:20;;;;;;;4.12;2.60;;;;;;;33.80;52.36;99597.80;1728395;81;20991;-80
2022/07/01 12:24:55;;;;;;;6.28;2.50;;;;;;;33.81;54.26;99597.97;1757482;81;20943;-78
2022/07/01 12:37:21;;;;;;;3.22;2.20;;;;;;;34.06;50.75;99596.59;1712501;83;21575;-78
2022/07/01 13:10:57;;;;;;;5.78;2.12;;;;;;;34.48;47.66;99591.47;1695039;84;20928;-75
2022/07/01 13:13:23;;;;;;;3.87;2.45;;;;;;;34.40;50.61;99582.31;1694980;84;21730;-75
2022/07/01 13:15:51;;;;;;;4.97;2.22;;;;;;;34.40;50.35;99585.17;1694722;84;20937;-76
2022/07/01 13:18:18;;;;;;;4.72;2.35;;;;;;;34.52;46.37;99581.91;1741694;81;20892;-75
2022/07/01 13:20:46;;;;;;;4.47;2.27;;;;;;;34.42;48.85;99585.48;1749183;82;20971;-75
2022/07/01 13:23:12;;;;;;;2.25;2.05;;;;;;;34.26;47.93;99579.55;1748853;82;21241;-75
2022/07/01 13:25:40;;;;;;;7.40;2.62;;;;;;;34.23;48.71;99580.67;1748881;82;21913;-75
2022/07/01 13:28:06;;;;;;;7.80;2.25;;;;;;;34.26;50.51;99586.04;1749324;82;21518;-75
2022/07/01 13:30:38;;;;;;;4.78;1.98;;;;;;;34.40;51.36;99583.73;1748886;82;20935;-75
2022/07/01 13:33:04;;;;;;;4.10;2.37;;;;;;;34.67;48.51;99577.05;1749295;82;21488;-76
2022/07/01 13:35:31;;;;;;;8.10;2.67;;;;;;;34.57;50.41;99576.96;1748996;82;20987;-75
2022/07/01 13:37:57;;;;;;;7.70;2.05;;;;;;;34.73;49.51;99579.41;1749256;82;21174;-76
2022/07/01 13:40:24;;;;;;;3.47;1.92;;;;;;;34.68;42.97;99580.08;1727560;81;20928;-75
2022/07/01 13:42:51;;;;;;;10.95;1.90;;;;;;;34.52;45.33;99569.85;1749079;82;21424;-75
2022/07/01 13:45:19;;;;;;;2.75;1.98;;;;;;;34.50;45.12;99577.34;1748963;82;20967;-75
2022/07/01 13:47:45;;;;;;;3.52;1.72;;;;;;;34.45;43.03;99573.87;1748940;82;20991;-74
2022/07/01 13:50:12;;;;;;;4.53;1.70;;;;;;;34.20;45.18;99569.41;1748986;82;21079;-75
2022/07/01 13:52:39;;;;;;;5.55;2.10;;;;;;;34.21;46.16;99571.78;1749057;82;20883;-75
2022/07/01 13:55:06;;;;;;;6.53;2.25;;;;;;;34.09;46.32;99572.76;1749004;82;21054;-75
2022/07/01 13:57:33;;;;;;;6.67;2.30;;;;;;;34.00;42.39;99571.53;1749517;82;21079;-75
2022/07/01 13:59:59;;;;;;;3.05;1.80;;;;;;;33.85;44.81;99574.30;1749039;82;21421;-75
2022/07/01 14:02:26;;;;;;;3.35;1.67;;;;;;;33.93;47.35;99563.33;1749426;82;21495;-75
2022/07/01 14:04:52;;;;;;;6.17;2.22;;;;;;;33.91;46.58;99565.87;1749043;82;21018;-75
2022/07/01 14:07:19;;;;;;;5.58;1.95;;;;;;;33.90;46.66;99564.94;1749078;82;20927;-75
2022/07/01 14:09:46;;;;;;;4.80;2.10;;;;;;;34.02;47.05;99568.19;1747558;80;21028;-75
2022/07/01 14:12:15;;;;;;;2.30;2.10;;;;;;;34.08;48.42;99556.91;1745613;82;20982;-75
2022/07/01 14:14:43;;;;;;;4.05;1.70;;;;;;;33.94;47.92;99562.05;1745752;81;21166;-75
2022/07/01 14:17:11;;;;;;;11.08;2.10;;;;;;;33.87;49.00;99562.39;1745588;82;20856;-76
2022/07/01 14:19:38;;;;;;;6.87;1.60;;;;;;;33.72;45.11;99565.15;1745606;82;21397;-75
2022/07/01 14:22:06;;;;;;;6.60;2.00;;;;;;;33.54;44.88;99559.61;1745773;81;20887;-75
2022/07/01 14:24:33;;;;;;;6.95;1.90;;;;;;;33.38;47.25;99558.72;1745676;81;21086;-74
2022/07/01 14:26:59;;;;;;;10.05;2.37;;;;;;;33.39;48.11;99555.21;1745938;82;21110;-75
2022/07/01 14:29:26;;;;;;;6.60;2.37;;;;;;;33.43;48.90;99558.70;1745824;82;20931;-75
2022/07/01 14:31:53;;;;;;;5.47;1.98;;;;;;;33.52;48.81;99559.32;1745661;82;21022;-75
2022/07/01 14:34:21;;;;;;;5.35;2.20;;;;;;;33.34;45.97;99552.37;1745830;82;20923;-75
2022/07/01 14:36:48;;;;;;;2.47;1.62;;;;;;;33.26;47.79;99561.11;1745758;82;20887;-75
2022/07/01 14:39:15;;;;;;;4.60;2.00;;;;;;;33.15;49.77;99555.88;1745651;81;21154;-75
2022/07/01 14:41:42;;;;;;;6.60;1.72;;;;;;;33.25;49.43;99557.45;1745569;82;21416;-75
2022/07/01 14:44:09;;;;;;;3.75;2.05;;;;;;;33.25;49.45;99556.03;1745628;82;20895;-75
2022/07/01 14:46:35;;;;;;;5.22;1.70;;;;;;;33.15;48.40;99557.31;1701123;82;20932;-76
2022/07/01 14:49:02;;;;;;;5.12;1.92;;;;;;;33.12;49.31;99558.27;1745561;82;21618;-76
2022/07/01 14:51:29;;;;;;;2.77;2.15;;;;;;;33.17;48.62;99549.08;1745684;82;21436;-75
2022/07/01 14:53:55;;;;;;;2.75;1.75;;;;;;;33.17;49.63;99553.98;1745561;82;20919;-75
2022/07/01 14:56:22;;;;;;;4.55;1.98;;;;;;;33.18;50.19;99554.16;1745687;82;20948;-75
2022/07/01 14:58:49;;;;;;;3.70;1.75;;;;;;;33.21;48.24;99553.99;1746016;82;20864;-75
2022/07/01 15:01:15;;;;;;;4.50;1.85;;;;;;;32.90;45.67;99557.78;1745647;82;21507;-75
2022/07/01 15:03:42;;;;;;;7.83;1.90;;;;;;;32.85;46.70;99556.36;1745692;82;21121;-75
2022/07/01 15:06:08;;;;;;;3.92;2.25;;;;;;;32.81;46.94;99559.22;1745472;82;20852;-76
2022/07/01 15:08:36;;;;;;;5.33;1.70;;;;;;;32.74;48.18;99553.97;1745618;82;21587;-76
2022/07/01 15:11:04;;;;;;;6.42;1.70;;;;;;;32.75;47.68;99566.98;1748440;81;20971;-76
2022/07/01 15:13:31;;;;;;;7.15;1.70;;;;;;;32.69;47.87;99563.16;1749018;82;20971;-76
2022/07/01 15:15:59;;;;;;;8.08;1.40;;;;;;;32.61;49.00;99568.38;1749349;82;21766;-76
2022/07/01 15:18:26;;;;;;;4.87;1.70;;;;;;;32.58;48.37;99559.98;1752853;81;20979;-77
2022/07/01 15:20:53;;;;;;;5.62;2.10;;;;;;;32.54;48.71;99555.23;1749094;82;20927;-76
2022/07/01 15:23:19;;;;;;;5.65;1.92;;;;;;;32.62;49.21;99563.48;1748987;82;21444;-76
2022/07/01 15:25:45;;;;;;;1.75;1.55;;;;;;;32.53;48.95;99563.61;1749075;82;21516;-76
2022/07/01 15:28:12;;;;;;;4.17;1.60;;;;;;;32.46;47.67;99565.95;1749359;82;21436;-75
2022/07/01 15:30:39;;;;;;;6.10;2.40;;;;;;;32.40;49.62;99568.00;1748918;82;20876;-76
2022/07/01 15:33:05;;;;;;;5.40;1.87;;;;;;;32.47;49.26;99569.75;1748983;82;20986;-76
2022/07/01 15:35:32;;;;;;;4.28;1.42;;;;;;;32.45;48.80;99571.50;1748939;82;20892;-76
2022/07/01 15:37:59;;;;;;;2.58;1.80;;;;;;;32.38;48.62;99579.06;1749300;82;20895;-76
2022/07/01 15:40:26;;;;;;;8.73;2.02;;;;;;;32.31;48.59;99582.23;1749031;82;21212;-76
2022/07/01 15:42:53;;;;;;;6.40;1.87;;;;;;;32.24;49.54;99579.05;1748875;82;21002;-76
2022/07/01 15:45:20;;;;;;;6.53;1.70;;;;;;;32.17;47.27;99573.64;1749035;82;21393;-76
2022/07/01 15:50:32;;;;;;;6.45;1.85;;;;;;;32.11;48.15;99576.95;1749192;82;20922;-76
2022/07/01 15:53:00;;;;;;;4.75;2.00;;;;;;;32.15;47.36;99580.44;1749330;82;21690;-75
2022/07/01 15:55:27;;;;;;;1.95;1.75;;;;;;;32.12;46.55;99584.22;1749069;82;20962;-75
2022/07/01 15:57:54;;;;;;;1.65;1.42;;;;;;;32.09;47.71;99580.89;1749020;82;20879;-75
2022/07/01 16:00:22;;;;;;;2.22;1.40;;;;;;;32.12;46.87;99582.80;1748960;82;20931;-75
2022/07/01 16:02:49;;;;;;;6.60;1.75;;;;;;;32.24;46.43;99587.59;1748923;82;20960;-75
2022/07/01 16:05:15;;;;;;;7.47;1.90;;;;;;;32.15;47.99;99587.55;1748887;82;21489;-76
2022/07/01 16:07:43;;;;;;;8.18;1.62;;;;;;;32.10;47.06;99582.47;1749041;82;21460;-75
2022/07/01 16:10:37;;;;;;;6.15;1.77;;;;;;;31.97;46.77;99581.94;1751136;80;20987;-75
2022/07/01 16:13:05;;;;;;;1.90;1.60;;;;;;;32.07;46.99;99585.64;1716384;83;20963;-75
2022/07/01 16:15:35;;;;;;;2.58;1.60;;;;;;;32.38;47.29;99585.42;1712743;83;20963;-76
2022/07/01 16:18:06;;;;;;;7.72;1.50;;;;;;;32.41;47.15;99589.52;1702975;84;21817;-76
2022/07/01 16:20:38;;;;;;;2.17;1.70;;;;;;;32.25;47.23;99594.88;1702654;84;20936;-77
2022/07/01 16:23:04;;;;;;;2.47;1.75;;;;;;;32.02;45.83;99590.52;1702966;84;20988;-76
2022/07/01 16:25:32;;;;;;;7.80;1.80;;;;;;;31.89;48.48;99586.30;1718536;83;20976;-76
2022/07/01 16:27:58;;;;;;;2.72;1.30;;;;;;;31.87;49.50;99578.23;1718763;83;20912;-77
2022/07/01 16:30:27;;;;;;;3.67;1.80;;;;;;;31.69;48.84;99592.56;1723799;83;21965;-76
2022/07/01 16:32:55;;;;;;;3.22;1.70;;;;;;;31.63;48.34;99587.28;1754250;81;20947;-77
2022/07/01 16:35:21;;;;;;;1.82;1.55;;;;;;;31.55;49.61;99593.89;1754506;81;21459;-76
2022/07/01 16:37:53;;;;;;;5.87;1.60;;;;;;;31.53;49.38;99593.56;1754605;81;20984;-77
2022/07/01 16:40:27;;;;;;;3.30;1.65;;;;;;;31.36;48.75;99595.78;1754741;81;20919;-76
2022/07/01 16:42:55;;;;;;;7.15;1.82;;;;;;;31.34;48.11;99601.14;1754388;81;21245;-76
2022/07/01 16:45:30;;;;;;;3.92;1.90;;;;;;;31.32;48.54;99601.61;1754222;81;20978;-76
2022/07/01 16:47:58;;;;;;;5.30;2.35;;;;;;;31.19;49.35;99598.03;1753815;81;20916;-75
2022/07/01 16:50:25;;;;;;;6.55;3.05;;;;;;;31.25;50.42;99604.73;1754565;81;20975;-76
2022/07/01 16:52:52;;;;;;;10.00;3.10;;;;;;;31.21;50.83;99601.22;1754328;81;20911;-75
2022/07/01 16:55:25;;;;;;;6.87;3.12;;;;;;;31.10;50.74;99599.55;1754188;80;21069;-75
2022/07/01 16:57:52;;;;;;;5.28;3.58;;;;;;;31.10;51.98;99608.73;1754167;81;20883;-74
2022/07/01 17:00:20;;;;;;;5.15;3.33;;;;;;;31.22;52.56;99610.70;1754301;81;20927;-75
2022/07/01 17:02:53;;;;;;;3.50;2.30;;;;;;;31.21;51.26;99606.28;1754240;81;21456;-75
2022/07/01 17:05:20;;;;;;;3.17;2.50;;;;;;;31.00;51.48;99610.67;1754498;81;20883;-76
2022/07/01 17:07:47;;;;;;;16.07;4.90;;;;;;;31.03;52.22;99610.40;1754310;81;21159;-76
2022/07/01 17:10:15;;;;;;;6.75;4.10;;;;;;;31.07;52.33;99610.43;1752348;80;21003;-75
2022/07/01 17:12:46;;;;;;;6.28;3.70;;;;;;;31.05;53.00;99610.09;1743200;81;20975;-75
2022/07/01 17:15:14;;;;;;;4.35;2.75;;;;;;;31.06;54.67;99616.58;1743083;81;21476;-75
2022/07/01 17:17:43;;;;;;;8.23;2.22;;;;;;;31.00;55.38;99622.05;1742809;81;20978;-75
2022/07/01 17:20:11;;;;;;;6.95;2.33;;;;;;;30.86;55.73;99624.79;1743260;81;21127;-75
2022/07/01 17:23:07;;;;;;;6.20;2.02;;;;;;;30.83;55.49;99624.27;1743383;81;21457;-76
2022/07/01 17:25:43;;;;;;;5.47;2.17;;;;;;;30.85;56.14;99623.98;1743218;81;20961;-75
2022/07/01 17:28:35;;;;;;;2.62;2.25;;;;;;;30.76;55.95;99631.61;1743390;81;21046;-76
2022/07/01 17:31:13;;;;;;;6.05;2.17;;;;;;;30.70;56.89;99627.12;1742856;81;21469;-75
2022/07/01 17:33:41;;;;;;;3.45;1.70;;;;;;;30.71;56.60;99632.34;1743810;81;21505;-75
2022/07/01 17:36:26;;;;;;;6.95;2.50;;;;;;;30.66;55.39;99632.14;1748719;81;21035;-75
2022/07/01 17:38:55;;;;;;;2.87;1.77;;;;;;;30.57;55.09;99643.55;1748923;82;20934;-75
2022/07/01 17:41:34;;;;;;;2.72;1.92;;;;;;;30.51;55.62;99640.33;1748813;82;21484;-75
2022/07/01 17:44:06;;;;;;;3.05;1.87;;;;;;;30.42;55.33;99638.20;1744437;82;21054;-75
2022/07/01 17:46:34;;;;;;;11.68;2.22;;;;;;;30.43;55.72;99642.62;1748900;81;21792;-75
2022/07/01 17:49:03;;;;;;;2.95;2.10;;;;;;;30.35;56.52;99638.58;1748975;82;20974;-75
2022/07/01 17:51:33;;;;;;;9.13;2.37;;;;;;;30.30;56.93;99639.14;1749093;81;20841;-76
2022/07/01 17:53:59;;;;;;;8.78;2.10;;;;;;;30.28;56.53;99643.09;1748840;81;20924;-75
2022/07/01 17:56:27;;;;;;;3.47;2.15;;;;;;;30.33;56.72;99645.98;1749050;81;21555;-75
2022/07/01 17:59:02;;;;;;;2.87;2.12;;;;;;;30.29;56.84;99653.80;1748731;82;21253;-75
2022/07/01 18:01:33;;;;;;;4.62;1.98;;;;;;;30.18;57.23;99661.23;1748950;82;20935;-75
2022/07/01 18:04:01;;;;;;;3.87;2.25;;;;;;;30.11;57.51;99653.73;1748792;82;20896;-76
2022/07/01 18:06:28;;;;;;;8.95;2.10;;;;;;;30.06;58.48;99657.91;1749009;82;20860;-76
2022/07/01 18:08:55;;;;;;;4.35;2.42;;;;;;;30.03;58.68;99658.02;1748990;82;20982;-77
2022/07/01 18:11:44;;;;;;;4.22;2.27;;;;;;;29.97;58.57;99657.80;1749007;81;21131;-76
2022/07/01 18:14:28;;;;;;;6.58;2.40;;;;;;;29.95;59.07;99656.03;1749101;82;20935;-75
2022/07/01 18:17:05;;;;;;;7.03;2.17;;;;;;;29.95;60.47;99659.67;1748598;82;21499;-76
2022/07/01 18:19:48;;;;;;;6.25;2.50;;;;;;;29.84;61.15;99654.92;1749028;82;20951;-75
2022/07/01 18:22:41;;;;;;;7.30;2.40;;;;;;;29.78;61.43;99664.63;1749256;81;21484;-75
2022/07/01 18:25:13;;;;;;;15.60;2.33;;;;;;;29.67;63.86;99672.67;1748981;82;21076;-75
2022/07/01 18:27:44;;;;;;;11.80;2.98;;;;;;;29.57;67.77;99679.58;1728119;81;21429;-74
2022/07/01 18:30:14;;;;;;;12.50;2.98;;;;;;;29.43;70.75;99679.98;1749034;82;20912;-75
2022/07/01 18:32:43;;;;;;;10.55;2.25;;;;;;;29.26;68.49;99681.42;1749269;82;20955;-75
2022/07/01 18:35:14;;;;;;;6.53;2.83;;;;;;;29.14;70.13;99686.59;1749058;82;20844;-75
2022/07/01 18:37:55;;;;;;;8.40;3.27;;;;;;;29.03;70.26;99696.01;1749111;82;21226;-75
2022/07/01 18:40:26;;;;;;;16.85;3.47;;;;;;;28.96;71.58;99691.90;1749226;82;21005;-75
2022/07/01 18:42:53;;;;;;;5.22;2.52;;;;;;;28.85;72.11;99692.97;1748934;82;20942;-76
2022/07/01 18:45:19;;;;;;;5.87;2.83;;;;;;;28.82;77.52;99697.30;1749342;82;20864;-75
2022/07/01 18:47:52;;;;;;;8.80;3.37;;;;;;;28.83;73.16;99700.33;1749132;82;20970;-75
2022/07/01 18:50:15;;;;;;;10.55;3.87;;;;;;;28.81;75.51;99706.45;1748266;81;22232;-75
2022/07/01 18:52:41;;;;;;;6.33;3.52;;;;;;;28.67;76.62;99708.39;1749043;82;20987;-75
2022/07/01 18:55:09;;;;;;;5.83;3.50;;;;;;;28.70;79.17;99714.39;1749044;82;20903;-75
2022/07/01 18:57:40;;;;;;;9.35;3.50;;;;;;;28.46;81.80;99712.50;1749318;82;20931;-75
2022/07/01 19:00:09;;;;;;;8.58;3.37;;;;;;;28.53;80.97;99715.19;1749181;82;20931;-75
2022/07/01 19:02:35;;;;;;;7.25;3.42;;;;;;;28.46;80.00;99713.92;1749360;82;21113;-76
2022/07/01 19:05:03;;;;;;;5.20;2.85;;;;;;;28.09;83.33;99715.31;1748907;82;21472;-75
2022/07/01 19:07:30;;;;;;;7.75;2.87;;;;;;;27.94;85.28;99719.84;1749132;82;20955;-76
2022/07/01 19:09:57;;;;;;;7.75;3.47;;;;;;;28.07;84.48;99718.59;1749333;82;20899;-76
2022/07/01 19:12:24;;;;;;;6.90;3.70;;;;;;;28.12;84.54;99715.05;1755371;81;20982;-76
2022/07/01 19:14:51;;;;;;;6.75;3.62;;;;;;;28.05;83.14;99717.41;1754674;81;21125;-75
2022/07/01 19:17:17;;;;;;;4.78;3.52;;;;;;;28.21;83.08;99722.34;1754407;81;20978;-75
2022/07/01 19:19:44;;;;;;;6.25;3.77;;;;;;;28.12;84.22;99721.52;1754379;81;20979;-75
2022/07/01 19:22:11;;;;;;;23.92;15.20;;;;;;;28.12;85.89;99731.42;1754304;81;20864;-75
2022/07/01 19:24:41;;;;;;;27.85;19.15;;;;;;;28.02;87.06;99726.78;1754305;81;20891;-75
2022/07/01 19:27:07;;;;;;;36.48;20.65;;;;;;;27.91;88.29;99740.53;1754670;81;21102;-75
2022/07/01 19:29:34;;;;;;;22.05;14.18;;;;;;;27.72;89.47;99736.48;1754414;81;21471;-75
2022/07/01 19:32:02;;;;;;;21.20;13.53;;;;;;;27.51;91.00;99740.47;1754552;81;21480;-75
2022/07/01 19:34:29;;;;;;;11.43;7.53;;;;;;;27.58;91.95;99746.00;1754433;81;20928;-75
2022/07/01 19:36:56;;;;;;;6.00;5.03;;;;;;;27.46;90.57;99738.95;1754410;81;21046;-76
2022/07/01 19:39:22;;;;;;;9.78;5.00;;;;;;;27.29;90.57;99743.09;1754526;81;21129;-75
2022/07/01 19:41:49;;;;;;;6.65;3.87;;;;;;;27.22;90.64;99744.02;1754409;81;20879;-75
2022/07/01 19:44:15;;;;;;;9.28;3.65;;;;;;;27.12;90.99;99743.58;1754429;81;20986;-75
2022/07/01 19:46:41;;;;;;;5.15;2.83;;;;;;;27.11;92.16;99744.78;1754566;81;20935;-75
2022/07/01 19:49:08;;;;;;;6.40;3.00;;;;;;;27.13;92.94;99740.92;1754258;81;20927;-75
2022/07/01 19:51:35;;;;;;;7.03;2.90;;;;;;;27.17;92.50;99741.67;1754709;81;22097;-75
2022/07/01 19:54:03;;;;;;;3.17;2.75;;;;;;;27.20;91.40;99737.17;1754176;81;20923;-75
2022/07/01 19:56:30;;;;;;;5.47;2.60;;;;;;;27.15;91.48;99748.37;1754383;81;20891;-76
2022/07/01 19:58:56;;;;;;;143.60;10.63;;;;;;;27.05;91.69;99744.50;1754403;81;20927;-75
2022/07/01 20:01:23;;;;;;;125.15;11.60;;;;;;;26.97;94.51;99746.59;1754291;81;21060;-75
2022/07/01 20:03:50;;;;;;;76.70;7.62;;;;;;;26.97;94.65;99744.40;1754326;81;21165;-76
2022/07/01 20:06:17;;;;;;;48.40;7.10;;;;;;;27.01;94.75;99740.08;1754221;81;20984;-75
2022/07/01 20:08:44;;;;;;;20.92;3.45;;;;;;;26.89;95.00;99743.70;1754268;81;20896;-75
2022/07/01 20:11:11;;;;;;;21.93;3.92;;;;;;;26.87;95.29;99740.50;1752673;80;21073;-75
2022/07/01 20:13:38;;;;;;;15.72;4.37;;;;;;;26.91;96.21;99748.31;1745362;81;21437;-75
2022/07/01 20:16:05;;;;;;;5.12;3.22;;;;;;;26.95;96.33;99739.17;1745579;82;21835;-75
2022/07/01 20:18:32;;;;;;;8.20;3.77;;;;;;;26.93;95.55;99740.22;1745144;81;20888;-75
2022/07/01 20:20:58;;;;;;;9.23;3.55;;;;;;;26.95;94.67;99742.00;1745342;81;20931;-76
2022/07/01 20:23:27;;;;;;;5.28;2.98;;;;;;;26.96;94.18;99746.42;1745750;81;21043;-75
2022/07/01 20:25:54;;;;;;;5.33;3.47;;;;;;;26.88;93.52;99746.95;1745479;81;21090;-76
2022/07/01 20:28:23;;;;;;;7.90;3.05;;;;;;;26.90;92.53;99755.20;1745907;81;21429;-75
2022/07/01 20:30:49;;;;;;;5.90;3.42;;;;;;;26.96;91.70;99759.14;1745620;81;20852;-75
2022/07/01 20:33:16;;;;;;;7.22;3.45;;;;;;;26.93;92.06;99757.17;1745586;81;20979;-76
2022/07/01 20:35:42;;;;;;;14.80;3.72;;;;;;;26.93;92.20;99763.42;1745471;82;20891;-75
2022/07/01 20:38:08;;;;;;;8.23;2.95;;;;;;;26.84;93.68;99763.36;1745619;81;20872;-75
2022/07/01 20:40:35;;;;;;;6.50;3.65;;;;;;;26.86;94.51;99760.91;1745402;81;22063;-75
2022/07/01 20:43:01;;;;;;;4.15;3.20;;;;;;;26.96;92.86;99763.38;1745402;81;20913;-76
2022/07/01 20:45:28;;;;;;;9.83;3.10;;;;;;;26.88;93.27;99761.89;1745062;81;23233;-76
2022/07/01 20:47:56;;;;;;;4.70;3.00;;;;;;;26.93;94.29;99760.60;1745651;82;21555;-76
2022/07/01 20:50:23;;;;;;;3.27;2.90;;;;;;;26.91;96.30;99761.03;1745763;81;20924;-76
2022/07/01 20:52:49;;;;;;;4.08;2.98;;;;;;;26.88;97.22;99759.67;1745521;81;21186;-76
2022/07/01 20:55:15;;;;;;;4.30;2.83;;;;;;;26.82;97.68;99761.56;1745346;81;20967;-76
2022/07/01 20:57:42;;;;;;;3.95;2.75;;;;;;;26.88;97.35;99756.84;1745565;82;20888;-76
2022/07/01 21:00:09;;;;;;;5.97;2.80;;;;;;;26.88;95.91;99760.48;1745731;82;20939;-76
2022/07/01 21:02:39;;;;;;;6.67;3.00;;;;;;;26.86;96.67;99758.69;1745960;81;21418;-75
2022/07/01 21:05:06;;;;;;;8.53;2.62;;;;;;;26.84;99.62;99761.95;1745642;81;21516;-75
2022/07/01 21:07:33;;;;;;;5.92;3.42;;;;;;;26.74;100.00;99757.25;1745391;81;20923;-75
2022/07/01 21:10:00;;;;;;;3.52;3.02;;;;;;;26.67;100.00;99760.98;1745415;82;20880;-75
2022/07/01 21:12:27;;;;;;;4.20;3.05;;;;;;;26.49;100.00;99764.85;1747486;80;20939;-75
2022/07/01 21:14:54;;;;;;;3.27;2.95;;;;;;;26.39;100.00;99769.25;1748905;82;21019;-75
2022/07/01 21:17:20;;;;;;;4.60;2.52;;;;;;;26.47;100.00;99764.50;1749205;82;21061;-77
2022/07/01 21:19:46;;;;;;;4.00;3.05;;;;;;;26.46;100.00;99773.40;1748928;82;20979;-75
2022/07/01 21:22:13;;;;;;;4.55;3.30;;;;;;;26.50;100.00;99776.95;1749035;82;21100;-75
2022/07/01 21:24:39;;;;;;;5.15;2.67;;;;;;;26.19;100.00;99782.56;1749019;82;20991;-75
2022/07/01 21:27:06;;;;;;;3.58;2.77;;;;;;;25.94;100.00;99785.88;1749109;82;20934;-75
2022/07/01 21:29:33;;;;;;;4.03;3.12;;;;;;;25.88;100.00;99786.94;1749084;82;21208;-75
2022/07/01 21:32:00;;;;;;;3.98;3.12;;;;;;;25.71;100.00;99786.54;1748958;82;20888;-75
2022/07/01 21:34:28;;;;;;;3.77;2.62;;;;;;;25.65;100.00;99783.36;1748976;82;21034;-76
2022/07/01 21:36:55;;;;;;;9.33;3.00;;;;;;;25.57;100.00;99783.22;1749228;82;20971;-75
2022/07/01 21:39:21;;;;;;;3.40;2.85;;;;;;;25.49;100.00;99780.45;1749568;82;20891;-76
2022/07/01 21:41:48;;;;;;;5.03;2.95;;;;;;;25.48;100.00;99778.05;1749435;82;21123;-75
2022/07/01 21:44:18;;;;;;;4.60;2.75;;;;;;;25.43;100.00;99780.72;1749523;82;20927;-75
2022/07/01 21:46:46;;;;;;;4.92;3.33;;;;;;;25.39;100.00;99779.94;1749425;82;20979;-76
2022/07/01 21:49:15;;;;;;;5.47;3.45;;;;;;;25.39;100.00;99782.76;1749960;82;20927;-75